sensor_id;sensor_type;location;lat;lon;timestamp;pressure;altitude;pressure_sealevel;temperature;humidity
72120;BME280;59993;53.052;18.576;2022-07-04T19:04:31;100855.44;;;21.47;72.85
72120;BME280;59993;53.052;18.576;2022-07-04T19:06:56;100869.44;;;21.34;73.92
72120;BME280;59993;53.052;18.576;2022-07-04T19:09:22;100861.53;;;21.33;73.50
72120;BME280;59993;53.052;18.576;2022-07-04T19:11:48;100867.75;;;21.33;74.12
72120;BME280;59993;53.052;18.576;2022-07-04T19:14:14;100866.78;;;21.18;74.39
72120;BME280;59993;53.052;18.576;2022-07-04T19:16:40;100867.81;;;21.08;75.13
72120;BME280;59993;53.052;18.576;2022-07-04T19:19:06;100873.22;;;20.92;75.67
72120;BME280;59993;53.052;18.576;2022-07-04T19:21:31;100869.88;;;20.82;76.26
72120;BME280;59993;53.052;18.576;2022-07-04T19:23:57;100870.69;;;20.82;76.36
72120;BME280;59993;53.052;18.576;2022-07-04T19:26:22;100873.22;;;20.75;76.04
72120;BME280;59993;53.052;18.576;2022-07-04T19:28:48;100884.00;;;20.67;76.83
72120;BME280;59993;53.052;18.576;2022-07-04T19:31:15;100887.50;;;20.59;77.37
72120;BME280;59993;53.052;18.576;2022-07-04T19:33:40;100888.00;;;20.47;78.58
72120;BME280;59993;53.052;18.576;2022-07-04T19:36:06;100895.72;;;20.41;78.45
72120;BME280;59993;53.052;18.576;2022-07-04T19:38:31;100897.03;;;20.29;78.55
72120;BME280;59993;53.052;18.576;2022-07-04T19:40:57;100903.41;;;20.28;78.77
72120;BME280;59993;53.052;18.576;2022-07-04T19:43:23;100906.09;;;20.20;78.26
72120;BME280;59993;53.052;18.576;2022-07-04T19:45:48;100905.44;;;20.18;79.35
72120;BME280;59993;53.052;18.576;2022-07-04T19:48:14;100905.22;;;20.11;79.46
72120;BME280;59993;53.052;18.576;2022-07-04T19:50:41;100903.22;;;20.13;78.41
72120;BME280;59993;53.052;18.576;2022-07-04T19:53:14;100907.25;;;20.09;78.84
72120;BME280;59993;53.052;18.576;2022-07-04T19:55:41;100900.66;;;20.03;79.48
72120;BME280;59993;53.052;18.576;2022-07-04T19:58:07;100910.38;;;19.96;80.50
72120;BME280;59993;53.052;18.576;2022-07-04T20:00:32;100914.06;;;19.87;80.32
72120;BME280;59993;53.052;18.576;2022-07-04T20:02:58;100927.38;;;19.70;80.89
72120;BME280;59993;53.052;18.576;2022-07-04T20:05:23;100925.56;;;19.71;81.31
72120;BME280;59993;53.052;18.576;2022-07-04T20:07:49;100923.69;;;19.71;81.04
72120;BME280;59993;53.052;18.576;2022-07-04T20:10:16;100934.47;;;19.71;80.86
72120;BME280;59993;53.052;18.576;2022-07-04T20:12:42;100934.28;;;19.65;81.74
72120;BME280;59993;53.052;18.576;2022-07-04T20:15:08;100934.53;;;19.53;81.92
72120;BME280;59993;53.052;18.576;2022-07-04T20:17:35;100934.19;;;19.57;82.53
72120;BME280;59993;53.052;18.576;2022-07-04T20:20:03;100941.06;;;19.51;81.70
72120;BME280;59993;53.052;18.576;2022-07-04T20:22:29;100941.53;;;19.46;82.75
72120;BME280;59993;53.052;18.576;2022-07-04T20:24:55;100948.28;;;19.24;83.62
72120;BME280;59993;53.052;18.576;2022-07-04T20:27:22;100942.94;;;19.32;83.12
72120;BME280;59993;53.052;18.576;2022-07-04T20:29:49;100960.56;;;19.27;83.04
72120;BME280;59993;53.052;18.576;2022-07-04T20:32:15;100954.13;;;19.20;83.61
72120;BME280;59993;53.052;18.576;2022-07-04T20:34:56;100962.03;;;19.21;83.49
72120;BME280;59993;53.052;18.576;2022-07-04T20:37:22;100968.72;;;19.17;84.74
72120;BME280;59993;53.052;18.576;2022-07-04T20:39:48;100970.00;;;19.13;84.33
72120;BME280;59993;53.052;18.576;2022-07-04T20:42:13;100979.72;;;19.06;84.91
72120;BME280;59993;53.052;18.576;2022-07-04T20:44:38;100988.75;;;19.05;85.15
72120;BME280;59993;53.052;18.576;2022-07-04T20:47:04;100981.00;;;19.02;84.59
72120;BME280;59993;53.052;18.576;2022-07-04T20:49:30;100982.94;;;18.91;84.63
72120;BME280;59993;53.052;18.576;2022-07-04T20:51:57;100984.94;;;18.89;85.60
72120;BME280;59993;53.052;18.576;2022-07-04T20:54:22;100990.00;;;18.92;85.19
72120;BME280;59993;53.052;18.576;2022-07-04T20:56:48;100992.13;;;18.89;85.84
72120;BME280;59993;53.052;18.576;2022-07-04T20:59:13;100994.56;;;18.82;85.30
72120;BME280;59993;53.052;18.576;2022-07-04T21:01:40;100997.78;;;18.68;86.10
72120;BME280;59993;53.052;18.576;2022-07-04T21:04:05;100993.03;;;18.61;86.33
72120;BME280;59993;53.052;18.576;2022-07-04T21:06:31;100993.69;;;18.63;86.31
72120;BME280;59993;53.052;18.576;2022-07-04T21:08:56;101001.22;;;18.60;86.58
72120;BME280;59993;53.052;18.576;2022-07-04T21:11:22;101013.09;;;18.57;86.74
72120;BME280;59993;53.052;18.576;2022-07-04T21:13:47;101007.16;;;18.54;86.61
72120;BME280;59993;53.052;18.576;2022-07-04T21:16:13;101010.91;;;18.43;86.89
72120;BME280;59993;53.052;18.576;2022-07-04T21:18:39;101009.84;;;18.36;88.29
72120;BME280;59993;53.052;18.576;2022-07-04T21:21:05;101007.31;;;18.34;88.42
72120;BME280;59993;53.052;18.576;2022-07-04T21:23:30;101018.59;;;18.28;89.27
72120;BME280;59993;53.052;18.576;2022-07-04T21:25:56;101023.72;;;18.21;89.07
72120;BME280;59993;53.052;18.576;2022-07-04T21:28:21;101026.03;;;18.16;89.68
72120;BME280;59993;53.052;18.576;2022-07-04T21:30:47;101021.78;;;18.14;90.42
72120;BME280;59993;53.052;18.576;2022-07-04T21:33:12;101027.06;;;18.05;91.80
72120;BME280;59993;53.052;18.576;2022-07-04T21:35:38;101019.31;;;17.92;92.69
72120;BME280;59993;53.052;18.576;2022-07-04T21:38:03;101027.66;;;17.89;92.94
72120;BME280;59993;53.052;18.576;2022-07-04T21:40:29;101023.56;;;17.95;93.29
72120;BME280;59993;53.052;18.576;2022-07-04T21:42:58;101025.81;;;18.00;92.57
72120;BME280;59993;53.052;18.576;2022-07-04T21:45:24;101027.22;;;17.94;93.21
72120;BME280;59993;53.052;18.576;2022-07-04T21:47:52;101034.44;;;17.74;94.39
72120;BME280;59993;53.052;18.576;2022-07-04T21:50:17;101025.56;;;17.73;95.16
72120;BME280;59993;53.052;18.576;2022-07-04T21:52:43;101029.66;;;17.68;95.38
72120;BME280;59993;53.052;18.576;2022-07-04T21:55:09;101024.97;;;17.80;95.21
72120;BME280;59993;53.052;18.576;2022-07-04T21:57:34;101020.91;;;17.75;95.59
72120;BME280;59993;53.052;18.576;2022-07-04T22:00:00;101026.94;;;17.87;94.79
72120;BME280;59993;53.052;18.576;2022-07-04T22:02:26;101031.47;;;17.77;94.84
72120;BME280;59993;53.052;18.576;2022-07-04T22:04:51;101035.13;;;17.76;95.15
72120;BME280;59993;53.052;18.576;2022-07-04T22:07:17;101030.63;;;17.67;96.17
72120;BME280;59993;53.052;18.576;2022-07-04T22:09:42;101033.47;;;17.65;96.11
72120;BME280;59993;53.052;18.576;2022-07-04T22:12:11;101040.66;;;17.74;95.85
72120;BME280;59993;53.052;18.576;2022-07-04T22:14:36;101039.69;;;17.56;96.24
72120;BME280;59993;53.052;18.576;2022-07-04T22:17:02;101038.84;;;17.55;96.69
72120;BME280;59993;53.052;18.576;2022-07-04T22:19:28;101036.00;;;17.67;95.86
72120;BME280;59993;53.052;18.576;2022-07-04T22:21:53;101043.09;;;17.48;96.35
72120;BME280;59993;53.052;18.576;2022-07-04T22:24:18;101038.00;;;17.55;96.05
72120;BME280;59993;53.052;18.576;2022-07-04T22:26:44;101039.56;;;17.57;95.92
72120;BME280;59993;53.052;18.576;2022-07-04T22:29:09;101044.94;;;17.38;97.58
72120;BME280;59993;53.052;18.576;2022-07-04T22:31:35;101043.09;;;17.38;97.01
72120;BME280;59993;53.052;18.576;2022-07-04T22:34:00;101041.25;;;17.39;97.47
72120;BME280;59993;53.052;18.576;2022-07-04T22:36:26;101040.56;;;17.37;97.27
72120;BME280;59993;53.052;18.576;2022-07-04T22:38:51;101032.38;;;17.48;96.52
72120;BME280;59993;53.052;18.576;2022-07-04T22:41:17;101048.19;;;17.42;96.72
72120;BME280;59993;53.052;18.576;2022-07-04T22:43:42;101052.84;;;17.30;96.98
72120;BME280;59993;53.052;18.576;2022-07-04T22:46:08;101045.06;;;17.36;97.57
72120;BME280;59993;53.052;18.576;2022-07-04T22:48:33;101053.84;;;17.38;96.57
72120;BME280;59993;53.052;18.576;2022-07-04T22:50:59;101058.19;;;17.30;96.79
72120;BME280;59993;53.052;18.576;2022-07-04T22:53:40;101057.75;;;17.15;97.95
72120;BME280;59993;53.052;18.576;2022-07-04T22:56:25;101061.28;;;17.15;97.80
72120;BME280;59993;53.052;18.576;2022-07-04T22:58:51;101057.63;;;17.16;97.35
72120;BME280;59993;53.052;18.576;2022-07-04T23:01:17;101054.34;;;17.03;97.71
72120;BME280;59993;53.052;18.576;2022-07-04T23:03:43;101071.41;;;17.02;98.02
72120;BME280;59993;53.052;18.576;2022-07-04T23:06:08;101058.84;;;16.93;98.11
72120;BME280;59993;53.052;18.576;2022-07-04T23:08:34;101056.91;;;16.95;97.68
72120;BME280;59993;53.052;18.576;2022-07-04T23:10:59;101066.72;;;16.84;96.79
72120;BME280;59993;53.052;18.576;2022-07-04T23:13:25;101069.16;;;16.87;97.15
72120;BME280;59993;53.052;18.576;2022-07-04T23:15:50;101064.75;;;16.86;96.65
72120;BME280;59993;53.052;18.576;2022-07-04T23:18:16;101072.06;;;16.84;97.55
72120;BME280;59993;53.052;18.576;2022-07-04T23:20:41;101068.16;;;16.89;96.69
72120;BME280;59993;53.052;18.576;2022-07-04T23:23:07;101066.72;;;16.84;97.35
72120;BME280;59993;53.052;18.576;2022-07-04T23:25:33;101065.28;;;16.80;97.16
72120;BME280;59993;53.052;18.576;2022-07-04T23:27:58;101058.25;;;16.79;98.14
72120;BME280;59993;53.052;18.576;2022-07-04T23:30:23;101063.44;;;16.71;98.32
72120;BME280;59993;53.052;18.576;2022-07-04T23:32:49;101062.41;;;16.62;98.55
72120;BME280;59993;53.052;18.576;2022-07-04T23:35:14;101060.00;;;16.59;98.14
72120;BME280;59993;53.052;18.576;2022-07-04T23:37:40;101056.47;;;16.49;98.81
72120;BME280;59993;53.052;18.576;2022-07-04T23:40:06;101063.22;;;16.43;98.90
72120;BME280;59993;53.052;18.576;2022-07-04T23:42:32;101064.91;;;16.44;99.28
72120;BME280;59993;53.052;18.576;2022-07-04T23:44:57;101070.25;;;16.44;98.24
72120;BME280;59993;53.052;18.576;2022-07-04T23:47:22;101067.13;;;16.39;99.21
72120;BME280;59993;53.052;18.576;2022-07-04T23:49:48;101074.47;;;16.37;99.04
72120;BME280;59993;53.052;18.576;2022-07-04T23:52:13;101070.25;;;16.44;98.32
72120;BME280;59993;53.052;18.576;2022-07-04T23:54:39;101076.41;;;16.35;99.48
72120;BME280;59993;53.052;18.576;2022-07-04T23:57:04;101080.78;;;16.36;98.77
72120;BME280;59993;53.052;18.576;2022-07-04T23:59:30;101077.56;;;16.42;98.69
